sensor_id;sensor_type;location;lat;lon;timestamp;P1;durP1;ratioP1;P2;durP2;ratioP2
9974;SDS011;5028;50.974;4.968;2023-12-14T00:00:59;44.53;;;25.20;;
9974;SDS011;5028;50.974;4.968;2023-12-14T00:03:27;45.33;;;24.63;;
9974;SDS011;5028;50.974;4.968;2023-12-14T00:05:56;51.93;;;27.50;;
9974;SDS011;5028;50.974;4.968;2023-12-14T00:08:24;44.43;;;25.00;;
9974;SDS011;5028;50.974;4.968;2023-12-14T00:10:52;54.13;;;26.57;;
9974;SDS011;5028;50.974;4.968;2023-12-14T00:13:22;40.80;;;24.17;;
9974;SDS011;5028;50.974;4.968;2023-12-14T00:15:50;40.17;;;25.00;;
9974;SDS011;5028;50.974;4.968;2023-12-14T00:18:18;39.73;;;24.10;;
9974;SDS011;5028;50.974;4.968;2023-12-14T00:20:46;41.87;;;23.97;;
9974;SDS011;5028;50.974;4.968;2023-12-14T00:23:15;45.77;;;24.33;;
9974;SDS011;5028;50.974;4.968;2023-12-14T00:25:43;41.20;;;23.83;;
9974;SDS011;5028;50.974;4.968;2023-12-14T00:28:12;48.17;;;26.03;;
9974;SDS011;5028;50.974;4.968;2023-12-14T00:30:42;50.47;;;25.87;;
9974;SDS011;5028;50.974;4.968;2023-12-14T00:33:10;45.67;;;25.10;;
9974;SDS011;5028;50.974;4.968;2023-12-14T00:35:38;56.97;;;27.67;;
9974;SDS011;5028;50.974;4.968;2023-12-14T00:38:06;45.10;;;24.33;;
9974;SDS011;5028;50.974;4.968;2023-12-14T00:40:35;48.27;;;25.57;;
9974;SDS011;5028;50.974;4.968;2023-12-14T00:43:03;53.70;;;27.97;;
9974;SDS011;5028;50.974;4.968;2023-12-14T00:45:31;48.90;;;26.60;;
9974;SDS011;5028;50.974;4.968;2023-12-14T00:48:01;51.37;;;27.00;;
9974;SDS011;5028;50.974;4.968;2023-12-14T00:50:29;44.13;;;24.57;;
9974;SDS011;5028;50.974;4.968;2023-12-14T00:52:58;56.03;;;29.13;;
9974;SDS011;5028;50.974;4.968;2023-12-14T00:55:26;46.17;;;26.47;;
9974;SDS011;5028;50.974;4.968;2023-12-14T00:57:54;54.03;;;28.57;;
9974;SDS011;5028;50.974;4.968;2023-12-14T01:00:23;58.47;;;28.67;;
9974;SDS011;5028;50.974;4.968;2023-12-14T01:02:51;47.40;;;25.57;;
9974;SDS011;5028;50.974;4.968;2023-12-14T01:05:20;57.70;;;29.53;;
9974;SDS011;5028;50.974;4.968;2023-12-14T01:07:49;51.70;;;27.07;;
9974;SDS011;5028;50.974;4.968;2023-12-14T01:10:17;50.87;;;28.67;;
9974;SDS011;5028;50.974;4.968;2023-12-14T01:12:45;43.90;;;22.50;;
9974;SDS011;5028;50.974;4.968;2023-12-14T01:15:14;52.93;;;28.60;;
9974;SDS011;5028;50.974;4.968;2023-12-14T01:17:42;57.77;;;30.20;;
9974;SDS011;5028;50.974;4.968;2023-12-14T01:20:11;57.30;;;31.23;;
9974;SDS011;5028;50.974;4.968;2023-12-14T01:22:41;49.47;;;26.97;;
9974;SDS011;5028;50.974;4.968;2023-12-14T01:25:09;48.90;;;26.00;;
9974;SDS011;5028;50.974;4.968;2023-12-14T01:27:37;47.27;;;27.37;;
9974;SDS011;5028;50.974;4.968;2023-12-14T01:30:06;62.57;;;29.47;;
9974;SDS011;5028;50.974;4.968;2023-12-14T01:32:35;56.80;;;28.33;;
9974;SDS011;5028;50.974;4.968;2023-12-14T01:35:04;53.17;;;27.67;;
9974;SDS011;5028;50.974;4.968;2023-12-14T01:37:33;40.90;;;20.70;;
9974;SDS011;5028;50.974;4.968;2023-12-14T01:40:03;53.80;;;24.37;;
9974;SDS011;5028;50.974;4.968;2023-12-14T01:42:32;54.63;;;25.10;;
9974;SDS011;5028;50.974;4.968;2023-12-14T01:45:01;70.43;;;30.43;;
9974;SDS011;5028;50.974;4.968;2023-12-14T01:47:30;80.27;;;30.13;;
9974;SDS011;5028;50.974;4.968;2023-12-14T01:49:58;94.63;;;30.50;;
9974;SDS011;5028;50.974;4.968;2023-12-14T01:52:27;94.40;;;29.17;;
9974;SDS011;5028;50.974;4.968;2023-12-14T01:54:55;46.77;;;18.33;;
9974;SDS011;5028;50.974;4.968;2023-12-14T01:57:26;81.43;;;26.43;;
9974;SDS011;5028;50.974;4.968;2023-12-14T01:59:54;60.73;;;19.83;;
9974;SDS011;5028;50.974;4.968;2023-12-14T02:02:23;86.87;;;26.77;;
9974;SDS011;5028;50.974;4.968;2023-12-14T02:04:51;48.77;;;17.53;;
9974;SDS011;5028;50.974;4.968;2023-12-14T02:07:19;70.33;;;22.57;;
9974;SDS011;5028;50.974;4.968;2023-12-14T02:09:48;81.53;;;25.70;;
9974;SDS011;5028;50.974;4.968;2023-12-14T02:12:17;97.63;;;26.87;;
9974;SDS011;5028;50.974;4.968;2023-12-14T02:14:48;94.90;;;27.10;;
9974;SDS011;5028;50.974;4.968;2023-12-14T02:17:16;98.73;;;25.87;;
9974;SDS011;5028;50.974;4.968;2023-12-14T02:19:44;63.50;;;23.03;;
9974;SDS011;5028;50.974;4.968;2023-12-14T02:22:13;87.07;;;27.80;;
9974;SDS011;5028;50.974;4.968;2023-12-14T02:24:45;86.07;;;24.70;;
9974;SDS011;5028;50.974;4.968;2023-12-14T02:27:13;62.33;;;23.30;;
9974;SDS011;5028;50.974;4.968;2023-12-14T02:29:41;28.63;;;14.57;;
9974;SDS011;5028;50.974;4.968;2023-12-14T02:32:09;43.93;;;21.47;;
9974;SDS011;5028;50.974;4.968;2023-12-14T02:34:37;42.50;;;20.63;;
9974;SDS011;5028;50.974;4.968;2023-12-14T02:37:06;29.63;;;16.33;;
9974;SDS011;5028;50.974;4.968;2023-12-14T02:39:34;34.17;;;18.50;;
9974;SDS011;5028;50.974;4.968;2023-12-14T02:42:04;37.47;;;18.67;;
9974;SDS011;5028;50.974;4.968;2023-12-14T02:44:32;30.90;;;18.10;;
9974;SDS011;5028;50.974;4.968;2023-12-14T02:47:00;34.83;;;18.73;;
9974;SDS011;5028;50.974;4.968;2023-12-14T02:49:28;33.83;;;18.70;;
9974;SDS011;5028;50.974;4.968;2023-12-14T02:51:57;35.70;;;18.83;;
9974;SDS011;5028;50.974;4.968;2023-12-14T02:54:25;22.97;;;13.23;;
9974;SDS011;5028;50.974;4.968;2023-12-14T02:56:53;31.30;;;18.33;;
9974;SDS011;5028;50.974;4.968;2023-12-14T02:59:23;34.33;;;18.87;;
9974;SDS011;5028;50.974;4.968;2023-12-14T03:01:51;34.37;;;19.13;;
9974;SDS011;5028;50.974;4.968;2023-12-14T03:04:19;30.20;;;16.70;;
9974;SDS011;5028;50.974;4.968;2023-12-14T03:06:47;28.93;;;17.20;;
9974;SDS011;5028;50.974;4.968;2023-12-14T03:09:16;30.40;;;17.63;;
9974;SDS011;5028;50.974;4.968;2023-12-14T03:11:45;28.37;;;16.97;;
9974;SDS011;5028;50.974;4.968;2023-12-14T03:14:13;28.23;;;17.73;;
9974;SDS011;5028;50.974;4.968;2023-12-14T03:16:43;31.13;;;17.73;;
9974;SDS011;5028;50.974;4.968;2023-12-14T03:19:11;30.27;;;16.73;;
9974;SDS011;5028;50.974;4.968;2023-12-14T03:21:40;25.57;;;14.93;;
9974;SDS011;5028;50.974;4.968;2023-12-14T03:24:08;22.40;;;14.17;;
9974;SDS011;5028;50.974;4.968;2023-12-14T03:26:36;25.73;;;17.77;;
9974;SDS011;5028;50.974;4.968;2023-12-14T03:29:04;28.43;;;17.87;;
9974;SDS011;5028;50.974;4.968;2023-12-14T03:31:34;20.73;;;14.77;;
9974;SDS011;5028;50.974;4.968;2023-12-14T03:34:04;21.00;;;12.73;;
9974;SDS011;5028;50.974;4.968;2023-12-14T03:36:32;21.03;;;15.37;;
9974;SDS011;5028;50.974;4.968;2023-12-14T03:39:03;21.63;;;13.20;;
9974;SDS011;5028;50.974;4.968;2023-12-14T03:41:32;25.13;;;17.90;;
9974;SDS011;5028;50.974;4.968;2023-12-14T03:44:00;20.73;;;14.73;;
9974;SDS011;5028;50.974;4.968;2023-12-14T03:46:28;14.20;;;11.80;;
9974;SDS011;5028;50.974;4.968;2023-12-14T03:48:57;17.60;;;13.63;;
9974;SDS011;5028;50.974;4.968;2023-12-14T03:51:26;20.77;;;14.80;;
9974;SDS011;5028;50.974;4.968;2023-12-14T03:53:55;22.57;;;16.40;;
9974;SDS011;5028;50.974;4.968;2023-12-14T03:56:23;20.53;;;14.60;;
9974;SDS011;5028;50.974;4.968;2023-12-14T03:58:51;19.93;;;15.53;;
9974;SDS011;5028;50.974;4.968;2023-12-14T04:01:20;21.30;;;16.07;;
9974;SDS011;5028;50.974;4.968;2023-12-14T04:03:48;21.73;;;17.13;;
9974;SDS011;5028;50.974;4.968;2023-12-14T04:06:16;23.70;;;17.50;;
9974;SDS011;5028;50.974;4.968;2023-12-14T04:08:46;20.87;;;16.97;;
9974;SDS011;5028;50.974;4.968;2023-12-14T04:11:14;10.73;;;9.63;;
9974;SDS011;5028;50.974;4.968;2023-12-14T04:13:43;16.87;;;12.87;;
9974;SDS011;5028;50.974;4.968;2023-12-14T04:16:11;17.47;;;14.67;;
9974;SDS011;5028;50.974;4.968;2023-12-14T04:18:39;13.63;;;10.57;;
9974;SDS011;5028;50.974;4.968;2023-12-14T04:21:08;13.50;;;11.63;;
9974;SDS011;5028;50.974;4.968;2023-12-14T04:23:36;10.77;;;9.23;;
9974;SDS011;5028;50.974;4.968;2023-12-14T04:26:05;14.67;;;12.23;;
9974;SDS011;5028;50.974;4.968;2023-12-14T04:28:36;13.10;;;11.70;;
9974;SDS011;5028;50.974;4.968;2023-12-14T04:31:04;14.77;;;12.53;;
9974;SDS011;5028;50.974;4.968;2023-12-14T04:33:32;12.80;;;9.60;;
9974;SDS011;5028;50.974;4.968;2023-12-14T04:36:00;12.60;;;10.07;;
9974;SDS011;5028;50.974;4.968;2023-12-14T04:38:29;13.13;;;9.47;;
9974;SDS011;5028;50.974;4.968;2023-12-14T04:40:57;14.97;;;13.00;;
9974;SDS011;5028;50.974;4.968;2023-12-14T04:43:27;11.63;;;9.60;;
9974;SDS011;5028;50.974;4.968;2023-12-14T04:45:57;16.70;;;13.20;;
9974;SDS011;5028;50.974;4.968;2023-12-14T04:48:25;15.60;;;13.37;;
9974;SDS011;5028;50.974;4.968;2023-12-14T04:50:53;16.53;;;14.73;;
9974;SDS011;5028;50.974;4.968;2023-12-14T04:53:21;16.63;;;14.70;;
9974;SDS011;5028;50.974;4.968;2023-12-14T04:55:50;17.90;;;14.80;;
9974;SDS011;5028;50.974;4.968;2023-12-14T04:58:18;20.40;;;14.97;;
9974;SDS011;5028;50.974;4.968;2023-12-14T05:00:48;17.70;;;14.30;;
9974;SDS011;5028;50.974;4.968;2023-12-14T05:03:17;17.47;;;15.60;;
9974;SDS011;5028;50.974;4.968;2023-12-14T05:05:46;17.93;;;13.70;;
9974;SDS011;5028;50.974;4.968;2023-12-14T05:08:15;18.03;;;14.97;;
9974;SDS011;5028;50.974;4.968;2023-12-14T05:10:43;19.07;;;15.67;;
9974;SDS011;5028;50.974;4.968;2023-12-14T05:13:12;15.83;;;13.17;;
9974;SDS011;5028;50.974;4.968;2023-12-14T05:15:40;16.87;;;14.63;;
9974;SDS011;5028;50.974;4.968;2023-12-14T05:18:10;16.20;;;14.30;;
9974;SDS011;5028;50.974;4.968;2023-12-14T05:20:40;17.40;;;12.73;;
9974;SDS011;5028;50.974;4.968;2023-12-14T05:23:09;17.90;;;13.67;;
9974;SDS011;5028;50.974;4.968;2023-12-14T05:25:37;14.37;;;12.87;;
9974;SDS011;5028;50.974;4.968;2023-12-14T05:28:06;14.57;;;11.87;;
9974;SDS011;5028;50.974;4.968;2023-12-14T05:30:34;14.33;;;12.53;;
9974;SDS011;5028;50.974;4.968;2023-12-14T05:33:02;12.93;;;11.53;;
9974;SDS011;5028;50.974;4.968;2023-12-14T05:35:32;13.60;;;11.83;;
9974;SDS011;5028;50.974;4.968;2023-12-14T05:38:00;14.03;;;11.53;;
9974;SDS011;5028;50.974;4.968;2023-12-14T05:40:28;14.00;;;12.07;;
9974;SDS011;5028;50.974;4.968;2023-12-14T05:42:57;12.53;;;10.90;;
9974;SDS011;5028;50.974;4.968;2023-12-14T05:45:26;11.93;;;9.63;;
9974;SDS011;5028;50.974;4.968;2023-12-14T05:47:55;11.40;;;9.53;;
9974;SDS011;5028;50.974;4.968;2023-12-14T05:50:23;14.60;;;12.60;;
9974;SDS011;5028;50.974;4.968;2023-12-14T05:52:53;14.77;;;13.27;;
9974;SDS011;5028;50.974;4.968;2023-12-14T05:55:22;13.27;;;11.53;;
9974;SDS011;5028;50.974;4.968;2023-12-14T05:57:50;15.47;;;13.10;;
9974;SDS011;5028;50.974;4.968;2023-12-14T06:00:18;14.37;;;12.67;;
9974;SDS011;5028;50.974;4.968;2023-12-14T06:02:46;14.47;;;13.00;;
9974;SDS011;5028;50.974;4.968;2023-12-14T06:05:15;12.43;;;10.20;;
9974;SDS011;5028;50.974;4.968;2023-12-14T06:07:43;10.93;;;9.13;;
9974;SDS011;5028;50.974;4.968;2023-12-14T06:10:13;13.87;;;11.50;;
9974;SDS011;5028;50.974;4.968;2023-12-14T06:12:41;8.73;;;6.93;;
9974;SDS011;5028;50.974;4.968;2023-12-14T06:15:10;14.60;;;12.97;;
9974;SDS011;5028;50.974;4.968;2023-12-14T06:17:38;12.37;;;10.33;;
9974;SDS011;5028;50.974;4.968;2023-12-14T06:20:09;7.87;;;6.87;;
9974;SDS011;5028;50.974;4.968;2023-12-14T06:22:38;14.77;;;12.97;;
9974;SDS011;5028;50.974;4.968;2023-12-14T06:25:07;15.60;;;12.77;;
9974;SDS011;5028;50.974;4.968;2023-12-14T06:27:37;15.37;;;13.77;;
9974;SDS011;5028;50.974;4.968;2023-12-14T06:30:06;11.47;;;9.53;;
9974;SDS011;5028;50.974;4.968;2023-12-14T06:32:36;15.43;;;13.00;;
9974;SDS011;5028;50.974;4.968;2023-12-14T06:35:05;10.47;;;8.93;;
9974;SDS011;5028;50.974;4.968;2023-12-14T06:37:34;15.40;;;13.87;;
9974;SDS011;5028;50.974;4.968;2023-12-14T06:40:02;11.10;;;9.60;;
9974;SDS011;5028;50.974;4.968;2023-12-14T06:42:31;15.73;;;14.07;;
9974;SDS011;5028;50.974;4.968;2023-12-14T06:45:02;15.07;;;13.37;;
9974;SDS011;5028;50.974;4.968;2023-12-14T06:47:31;13.53;;;12.13;;
9974;SDS011;5028;50.974;4.968;2023-12-14T06:50:00;11.60;;;10.40;;
9974;SDS011;5028;50.974;4.968;2023-12-14T06:52:28;13.53;;;12.23;;
9974;SDS011;5028;50.974;4.968;2023-12-14T06:54:56;15.13;;;13.63;;
9974;SDS011;5028;50.974;4.968;2023-12-14T06:57:25;11.93;;;9.27;;
9974;SDS011;5028;50.974;4.968;2023-12-14T06:59:53;12.93;;;11.63;;
9974;SDS011;5028;50.974;4.968;2023-12-14T07:02:22;13.87;;;11.43;;
9974;SDS011;5028;50.974;4.968;2023-12-14T07:04:51;13.30;;;12.00;;
9974;SDS011;5028;50.974;4.968;2023-12-14T07:07:19;13.03;;;11.73;;
9974;SDS011;5028;50.974;4.968;2023-12-14T07:09:47;13.93;;;12.43;;
9974;SDS011;5028;50.974;4.968;2023-12-14T07:12:15;13.47;;;12.07;;
9974;SDS011;5028;50.974;4.968;2023-12-14T07:14:44;12.67;;;11.30;;
9974;SDS011;5028;50.974;4.968;2023-12-14T07:17:12;9.83;;;8.50;;
9974;SDS011;5028;50.974;4.968;2023-12-14T07:19:42;16.43;;;13.33;;
9974;SDS011;5028;50.974;4.968;2023-12-14T07:22:10;14.27;;;12.87;;
9974;SDS011;5028;50.974;4.968;2023-12-14T07:24:38;11.37;;;10.17;;
9974;SDS011;5028;50.974;4.968;2023-12-14T07:27:18;11.43;;;9.23;;
9974;SDS011;5028;50.974;4.968;2023-12-14T07:29:46;14.80;;;13.10;;
9974;SDS011;5028;50.974;4.968;2023-12-14T07:32:14;14.93;;;11.43;;
9974;SDS011;5028;50.974;4.968;2023-12-14T07:34:44;14.57;;;11.53;;
9974;SDS011;5028;50.974;4.968;2023-12-14T07:37:12;15.47;;;12.87;;
9974;SDS011;5028;50.974;4.968;2023-12-14T07:39:41;11.10;;;9.90;;
9974;SDS011;5028;50.974;4.968;2023-12-14T07:42:09;13.53;;;12.07;;
9974;SDS011;5028;50.974;4.968;2023-12-14T07:44:38;17.53;;;13.17;;
9974;SDS011;5028;50.974;4.968;2023-12-14T07:47:07;11.83;;;10.00;;
9974;SDS011;5028;50.974;4.968;2023-12-14T07:49:36;14.03;;;12.33;;
9974;SDS011;5028;50.974;4.968;2023-12-14T07:52:06;14.57;;;11.13;;
9974;SDS011;5028;50.974;4.968;2023-12-14T07:54:34;14.07;;;11.90;;
9974;SDS011;5028;50.974;4.968;2023-12-14T07:57:03;15.70;;;12.93;;
9974;SDS011;5028;50.974;4.968;2023-12-14T07:59:31;17.33;;;12.97;;
9974;SDS011;5028;50.974;4.968;2023-12-14T08:02:00;15.57;;;12.90;;
9974;SDS011;5028;50.974;4.968;2023-12-14T08:04:28;16.83;;;13.80;;
9974;SDS011;5028;50.974;4.968;2023-12-14T08:06:57;14.73;;;13.00;;
9974;SDS011;5028;50.974;4.968;2023-12-14T08:09:26;15.43;;;13.17;;
9974;SDS011;5028;50.974;4.968;2023-12-14T08:11:55;16.63;;;13.37;;
9974;SDS011;5028;50.974;4.968;2023-12-14T08:14:23;15.73;;;13.67;;
9974;SDS011;5028;50.974;4.968;2023-12-14T08:16:51;14.30;;;12.47;;
9974;SDS011;5028;50.974;4.968;2023-12-14T08:19:19;14.00;;;12.33;;
9974;SDS011;5028;50.974;4.968;2023-12-14T08:21:47;15.30;;;13.13;;
9974;SDS011;5028;50.974;4.968;2023-12-14T08:24:15;15.67;;;12.67;;
9974;SDS011;5028;50.974;4.968;2023-12-14T08:26:45;15.10;;;13.50;;
9974;SDS011;5028;50.974;4.968;2023-12-14T08:29:13;16.10;;;12.67;;
9974;SDS011;5028;50.974;4.968;2023-12-14T08:31:42;15.30;;;13.17;;
9974;SDS011;5028;50.974;4.968;2023-12-14T08:34:10;18.30;;;13.73;;
9974;SDS011;5028;50.974;4.968;2023-12-14T08:36:38;14.90;;;13.30;;
9974;SDS011;5028;50.974;4.968;2023-12-14T08:39:06;18.87;;;14.33;;
9974;SDS011;5028;50.974;4.968;2023-12-14T08:41:35;17.13;;;14.77;;
9974;SDS011;5028;50.974;4.968;2023-12-14T08:44:04;15.67;;;12.43;;
9974;SDS011;5028;50.974;4.968;2023-12-14T08:46:38;18.10;;;13.90;;
9974;SDS011;5028;50.974;4.968;2023-12-14T08:49:06;14.13;;;12.47;;
9974;SDS011;5028;50.974;4.968;2023-12-14T08:51:35;14.00;;;12.17;;
9974;SDS011;5028;50.974;4.968;2023-12-14T08:54:04;13.97;;;11.53;;
9974;SDS011;5028;50.974;4.968;2023-12-14T08:56:32;14.57;;;12.93;;
9974;SDS011;5028;50.974;4.968;2023-12-14T08:59:01;13.27;;;11.87;;
9974;SDS011;5028;50.974;4.968;2023-12-14T09:01:31;15.93;;;13.17;;
9974;SDS011;5028;50.974;4.968;2023-12-14T09:04:00;16.70;;;11.40;;
9974;SDS011;5028;50.974;4.968;2023-12-14T09:06:29;15.50;;;13.67;;
9974;SDS011;5028;50.974;4.968;2023-12-14T09:08:57;15.73;;;13.43;;
9974;SDS011;5028;50.974;4.968;2023-12-14T09:11:25;15.37;;;13.77;;
9974;SDS011;5028;50.974;4.968;2023-12-14T09:13:53;16.57;;;12.43;;
9974;SDS011;5028;50.974;4.968;2023-12-14T09:16:22;15.77;;;13.97;;
9974;SDS011;5028;50.974;4.968;2023-12-14T09:18:51;15.97;;;13.87;;
9974;SDS011;5028;50.974;4.968;2023-12-14T09:21:19;15.77;;;13.60;;
9974;SDS011;5028;50.974;4.968;2023-12-14T09:23:59;14.47;;;12.47;;
9974;SDS011;5028;50.974;4.968;2023-12-14T09:26:27;16.07;;;13.57;;
9974;SDS011;5028;50.974;4.968;2023-12-14T09:28:56;13.77;;;12.23;;
9974;SDS011;5028;50.974;4.968;2023-12-14T09:31:24;16.17;;;12.83;;
9974;SDS011;5028;50.974;4.968;2023-12-14T09:33:54;14.50;;;13.00;;
9974;SDS011;5028;50.974;4.968;2023-12-14T09:36:22;15.43;;;12.57;;
9974;SDS011;5028;50.974;4.968;2023-12-14T09:38:50;15.07;;;12.23;;
9974;SDS011;5028;50.974;4.968;2023-12-14T09:41:19;15.57;;;12.03;;
9974;SDS011;5028;50.974;4.968;2023-12-14T09:43:47;13.37;;;11.97;;
9974;SDS011;5028;50.974;4.968;2023-12-14T09:46:15;13.73;;;11.83;;
9974;SDS011;5028;50.974;4.968;2023-12-14T09:48:45;14.03;;;11.80;;
9974;SDS011;5028;50.974;4.968;2023-12-14T09:51:15;12.17;;;10.53;;
9974;SDS011;5028;50.974;4.968;2023-12-14T09:53:44;11.17;;;9.80;;
9974;SDS011;5028;50.974;4.968;2023-12-14T09:56:12;13.70;;;11.07;;
9974;SDS011;5028;50.974;4.968;2023-12-14T09:58:40;12.30;;;11.00;;
9974;SDS011;5028;50.974;4.968;2023-12-14T10:01:21;11.93;;;10.73;;
9974;SDS011;5028;50.974;4.968;2023-12-14T10:03:51;12.13;;;10.43;;
9974;SDS011;5028;50.974;4.968;2023-12-14T10:06:39;12.63;;;9.60;;
9974;SDS011;5028;50.974;4.968;2023-12-14T10:09:08;11.47;;;10.27;;
9974;SDS011;5028;50.974;4.968;2023-12-14T10:11:40;13.93;;;10.10;;
9974;SDS011;5028;50.974;4.968;2023-12-14T10:14:18;12.03;;;9.10;;
9974;SDS011;5028;50.974;4.968;2023-12-14T10:16:47;8.77;;;6.90;;
9974;SDS011;5028;50.974;4.968;2023-12-14T10:19:18;10.23;;;9.10;;
9974;SDS011;5028;50.974;4.968;2023-12-14T10:21:48;11.73;;;9.47;;
9974;SDS011;5028;50.974;4.968;2023-12-14T10:24:17;9.87;;;8.23;;
9974;SDS011;5028;50.974;4.968;2023-12-14T10:26:46;9.70;;;8.00;;
9974;SDS011;5028;50.974;4.968;2023-12-14T10:29:14;10.80;;;8.57;;
9974;SDS011;5028;50.974;4.968;2023-12-14T10:31:43;10.10;;;8.20;;
9974;SDS011;5028;50.974;4.968;2023-12-14T10:34:11;10.17;;;8.73;;
9974;SDS011;5028;50.974;4.968;2023-12-14T10:36:40;8.97;;;8.07;;
9974;SDS011;5028;50.974;4.968;2023-12-14T10:39:12;9.93;;;8.20;;
9974;SDS011;5028;50.974;4.968;2023-12-14T10:41:42;8.63;;;7.73;;
9974;SDS011;5028;50.974;4.968;2023-12-14T10:44:23;7.70;;;6.87;;
9974;SDS011;5028;50.974;4.968;2023-12-14T10:47:14;9.63;;;7.13;;
9974;SDS011;5028;50.974;4.968;2023-12-14T10:49:43;8.97;;;6.80;;
9974;SDS011;5028;50.974;4.968;2023-12-14T10:52:16;8.67;;;6.67;;
9974;SDS011;5028;50.974;4.968;2023-12-14T10:54:46;8.80;;;7.70;;
9974;SDS011;5028;50.974;4.968;2023-12-14T10:57:19;8.93;;;7.13;;
9974;SDS011;5028;50.974;4.968;2023-12-14T10:59:48;8.10;;;7.17;;
9974;SDS011;5028;50.974;4.968;2023-12-14T11:02:17;9.13;;;6.70;;
9974;SDS011;5028;50.974;4.968;2023-12-14T11:04:55;7.80;;;7.00;;
9974;SDS011;5028;50.974;4.968;2023-12-14T11:07:44;8.13;;;6.47;;
9974;SDS011;5028;50.974;4.968;2023-12-14T11:10:15;8.40;;;7.50;;
9974;SDS011;5028;50.974;4.968;2023-12-14T11:13:00;10.70;;;7.43;;
9974;SDS011;5028;50.974;4.968;2023-12-14T11:15:30;7.83;;;6.87;;
9974;SDS011;5028;50.974;4.968;2023-12-14T11:20:50;7.90;;;7.20;;
9974;SDS011;5028;50.974;4.968;2023-12-14T11:23:27;7.80;;;6.63;;
9974;SDS011;5028;50.974;4.968;2023-12-14T11:26:02;10.77;;;7.40;;
9974;SDS011;5028;50.974;4.968;2023-12-14T11:28:32;12.27;;;7.47;;
9974;SDS011;5028;50.974;4.968;2023-12-14T11:31:02;7.80;;;7.00;;
9974;SDS011;5028;50.974;4.968;2023-12-14T11:33:34;8.33;;;7.50;;
9974;SDS011;5028;50.974;4.968;2023-12-14T11:36:10;9.07;;;7.17;;
9974;SDS011;5028;50.974;4.968;2023-12-14T11:38:40;8.00;;;7.20;;
9974;SDS011;5028;50.974;4.968;2023-12-14T11:41:10;8.30;;;6.53;;
9974;SDS011;5028;50.974;4.968;2023-12-14T11:43:38;11.03;;;7.40;;
9974;SDS011;5028;50.974;4.968;2023-12-14T11:46:08;8.37;;;7.00;;
9974;SDS011;5028;50.974;4.968;2023-12-14T11:48:36;7.93;;;7.03;;
9974;SDS011;5028;50.974;4.968;2023-12-14T11:51:05;8.23;;;6.70;;
9974;SDS011;5028;50.974;4.968;2023-12-14T11:53:35;8.70;;;7.80;;
9974;SDS011;5028;50.974;4.968;2023-12-14T11:56:05;9.47;;;7.37;;
9974;SDS011;5028;50.974;4.968;2023-12-14T11:58:36;8.57;;;7.10;;
9974;SDS011;5028;50.974;4.968;2023-12-14T12:01:13;9.83;;;7.57;;
9974;SDS011;5028;50.974;4.968;2023-12-14T12:03:43;7.77;;;6.87;;
9974;SDS011;5028;50.974;4.968;2023-12-14T12:06:21;8.27;;;6.83;;
9974;SDS011;5028;50.974;4.968;2023-12-14T12:08:50;8.90;;;6.87;;
9974;SDS011;5028;50.974;4.968;2023-12-14T12:11:19;8.80;;;7.90;;
9974;SDS011;5028;50.974;4.968;2023-12-14T12:13:54;7.70;;;7.00;;
9974;SDS011;5028;50.974;4.968;2023-12-14T12:16:23;8.20;;;7.20;;
9974;SDS011;5028;50.974;4.968;2023-12-14T12:18:52;9.97;;;7.50;;
9974;SDS011;5028;50.974;4.968;2023-12-14T12:21:20;9.03;;;7.47;;
9974;SDS011;5028;50.974;4.968;2023-12-14T12:23:49;7.60;;;6.73;;
9974;SDS011;5028;50.974;4.968;2023-12-14T12:26:17;9.17;;;7.07;;
9974;SDS011;5028;50.974;4.968;2023-12-14T12:28:45;10.23;;;7.10;;
9974;SDS011;5028;50.974;4.968;2023-12-14T12:31:16;8.97;;;7.23;;
9974;SDS011;5028;50.974;4.968;2023-12-14T12:33:45;9.77;;;7.10;;
9974;SDS011;5028;50.974;4.968;2023-12-14T12:36:13;9.13;;;7.10;;
9974;SDS011;5028;50.974;4.968;2023-12-14T12:38:42;7.30;;;6.40;;
9974;SDS011;5028;50.974;4.968;2023-12-14T12:41:10;9.57;;;6.67;;
9974;SDS011;5028;50.974;4.968;2023-12-14T12:43:38;10.37;;;7.00;;
9974;SDS011;5028;50.974;4.968;2023-12-14T12:46:06;9.03;;;7.07;;
9974;SDS011;5028;50.974;4.968;2023-12-14T12:48:36;9.17;;;6.40;;
9974;SDS011;5028;50.974;4.968;2023-12-14T12:51:06;8.53;;;6.37;;
9974;SDS011;5028;50.974;4.968;2023-12-14T12:53:34;7.23;;;5.80;;
9974;SDS011;5028;50.974;4.968;2023-12-14T12:56:03;7.13;;;6.00;;
9974;SDS011;5028;50.974;4.968;2023-12-14T12:58:31;7.87;;;6.67;;
9974;SDS011;5028;50.974;4.968;2023-12-14T13:00:59;8.00;;;6.13;;
9974;SDS011;5028;50.974;4.968;2023-12-14T13:03:28;6.83;;;6.13;;
9974;SDS011;5028;50.974;4.968;2023-12-14T13:05:57;9.70;;;6.77;;
9974;SDS011;5028;50.974;4.968;2023-12-14T13:08:26;7.20;;;6.17;;
9974;SDS011;5028;50.974;4.968;2023-12-14T13:10:54;8.23;;;6.20;;
9974;SDS011;5028;50.974;4.968;2023-12-14T13:13:22;7.87;;;6.23;;
9974;SDS011;5028;50.974;4.968;2023-12-14T13:15:51;7.40;;;6.07;;
9974;SDS011;5028;50.974;4.968;2023-12-14T13:18:19;9.13;;;6.23;;
9974;SDS011;5028;50.974;4.968;2023-12-14T13:20:47;10.50;;;6.73;;
9974;SDS011;5028;50.974;4.968;2023-12-14T13:23:17;8.10;;;7.30;;
9974;SDS011;5028;50.974;4.968;2023-12-14T13:25:45;7.97;;;7.17;;
9974;SDS011;5028;50.974;4.968;2023-12-14T13:28:13;11.20;;;7.37;;
9974;SDS011;5028;50.974;4.968;2023-12-14T13:30:43;9.20;;;7.37;;
9974;SDS011;5028;50.974;4.968;2023-12-14T13:33:12;8.20;;;7.50;;
9974;SDS011;5028;50.974;4.968;2023-12-14T13:35:40;11.57;;;8.27;;
9974;SDS011;5028;50.974;4.968;2023-12-14T13:38:09;9.23;;;8.17;;
9974;SDS011;5028;50.974;4.968;2023-12-14T13:40:39;10.17;;;7.97;;
9974;SDS011;5028;50.974;4.968;2023-12-14T13:43:07;8.13;;;7.33;;
9974;SDS011;5028;50.974;4.968;2023-12-14T13:45:37;9.27;;;6.93;;
9974;SDS011;5028;50.974;4.968;2023-12-14T13:48:08;8.10;;;5.93;;
9974;SDS011;5028;50.974;4.968;2023-12-14T13:50:37;7.97;;;5.80;;
9974;SDS011;5028;50.974;4.968;2023-12-14T13:53:07;8.63;;;5.37;;
9974;SDS011;5028;50.974;4.968;2023-12-14T13:55:35;6.90;;;4.93;;
9974;SDS011;5028;50.974;4.968;2023-12-14T13:58:05;7.70;;;5.17;;
9974;SDS011;5028;50.974;4.968;2023-12-14T14:00:33;7.63;;;4.60;;
9974;SDS011;5028;50.974;4.968;2023-12-14T14:03:02;4.90;;;4.13;;
9974;SDS011;5028;50.974;4.968;2023-12-14T14:05:32;7.97;;;4.20;;
9974;SDS011;5028;50.974;4.968;2023-12-14T14:08:00;10.73;;;4.30;;
9974;SDS011;5028;50.974;4.968;2023-12-14T14:10:30;4.83;;;3.90;;
9974;SDS011;5028;50.974;4.968;2023-12-14T14:12:58;6.60;;;4.57;;
9974;SDS011;5028;50.974;4.968;2023-12-14T14:15:28;8.03;;;5.23;;
9974;SDS011;5028;50.974;4.968;2023-12-14T14:17:57;7.90;;;5.90;;
9974;SDS011;5028;50.974;4.968;2023-12-14T14:20:25;9.37;;;4.93;;
9974;SDS011;5028;50.974;4.968;2023-12-14T14:22:53;10.47;;;5.00;;
9974;SDS011;5028;50.974;4.968;2023-12-14T14:25:22;8.00;;;5.60;;
9974;SDS011;5028;50.974;4.968;2023-12-14T14:27:51;8.30;;;4.30;;
9974;SDS011;5028;50.974;4.968;2023-12-14T14:30:22;5.63;;;4.57;;
9974;SDS011;5028;50.974;4.968;2023-12-14T14:32:53;6.70;;;4.47;;
9974;SDS011;5028;50.974;4.968;2023-12-14T14:35:21;7.83;;;4.60;;
9974;SDS011;5028;50.974;4.968;2023-12-14T14:37:50;7.70;;;4.77;;
9974;SDS011;5028;50.974;4.968;2023-12-14T14:40:18;6.77;;;4.70;;
9974;SDS011;5028;50.974;4.968;2023-12-14T14:42:46;8.37;;;5.23;;
9974;SDS011;5028;50.974;4.968;2023-12-14T14:45:15;11.13;;;4.50;;
9974;SDS011;5028;50.974;4.968;2023-12-14T14:47:43;5.00;;;4.37;;
9974;SDS011;5028;50.974;4.968;2023-12-14T14:50:13;6.67;;;4.83;;
9974;SDS011;5028;50.974;4.968;2023-12-14T14:52:41;7.17;;;4.37;;
9974;SDS011;5028;50.974;4.968;2023-12-14T14:55:10;9.07;;;6.17;;
9974;SDS011;5028;50.974;4.968;2023-12-14T14:57:38;10.73;;;5.67;;
9974;SDS011;5028;50.974;4.968;2023-12-14T15:00:07;7.70;;;5.70;;
9974;SDS011;5028;50.974;4.968;2023-12-14T15:02:35;6.97;;;5.77;;
9974;SDS011;5028;50.974;4.968;2023-12-14T15:05:04;10.03;;;6.40;;
9974;SDS011;5028;50.974;4.968;2023-12-14T15:07:34;9.53;;;6.70;;
9974;SDS011;5028;50.974;4.968;2023-12-14T15:10:03;9.57;;;6.27;;
9974;SDS011;5028;50.974;4.968;2023-12-14T15:12:31;9.07;;;6.33;;